Search for airport 
image banner adimage banner adimage banner ad
image banner ad

58N - Reigle Field

Located in Palmyra, United States

ICAO - 58N, IATA -

Data provided by Airmate  

General information

Coordinates: N40°17'12" W76°34'37"
Elevation is 489 feet MSL.
Magnetic variation is -10° East
View others Airports in Pennsylvania

Operational data

Special qualification required
Current time UTC:
Current local time:
METAR: KMUI 091556Z AUTO 19006KT 10SM -DZ FEW042 SCT050 SCT160 BKN200 11/02 A3007 RMK AO2 DZB46 SLP187 P0000 T01100023
View NOTAMs / SUP AIP / TFR affecting this airport [VIEW]
Communications frequencies: [VIEW]

Runways:

RWY identifierQFULength (ft)Width (ft)SurfaceLDA (ft)
13117°195540ASPH
31297°195540ASPH

Airport contact information

Address: Palmyra United States

Other aviation service providers

Flight schools

Reigle Aviation

Reigle Aviation

Satellite view of 58N